DAL2733 KMSP-KLGA
Flight info
| Callsign | DAL2733 |
|---|---|
| Flight time | N/A |
| Altitude | 35000 |
| Route | COULT7 DLL GERBS Q186 WEVEL ETG MIP4 |
| Aircraft | B739/M-SDE2E3FGHIRWXY/LB1 |
Departure
| Time | 2026-05-05 17:07 |
|---|---|
| Airport | Minneapolis–Saint Paul International Airport / Wold–Chamberlain Field (KMSP) |
Arrival
| Time | N/A |
|---|---|
| Airport | LaGuardia Airport (KLGA) |
| Time | Latitude | Longitude | Altitude | Speed | Heading |
|---|---|---|---|---|---|
| 2026-05-05 16:41 | 44.87986 | -93.20844 | 824 ft | 0 kts | 31° |
| 2026-05-05 17:00 | 44.87979 | -93.20851 | 824 ft | 4 kts | 31° |
| 2026-05-05 17:00 | 44.87956 | -93.20871 | 824 ft | 4 kts | 31° |
| 2026-05-05 17:01 | 44.87934 | -93.20890 | 821 ft | 2 kts | 31° |
| 2026-05-05 17:01 | 44.87917 | -93.20907 | 825 ft | 4 kts | 70° |
| 2026-05-05 17:01 | 44.87919 | -93.20935 | 820 ft | 4 kts | 121° |
| 2026-05-05 17:01 | 44.87929 | -93.20957 | 819 ft | 0 kts | 121° |
| 2026-05-05 17:04 | 44.87921 | -93.20945 | 820 ft | 4 kts | 137° |
| 2026-05-05 17:04 | 44.87877 | -93.20900 | 825 ft | 11 kts | 144° |
| 2026-05-05 17:04 | 44.87795 | -93.20811 | 825 ft | 18 kts | 135° |
| 2026-05-05 17:04 | 44.87705 | -93.20639 | 825 ft | 25 kts | 122° |
| 2026-05-05 17:05 | 44.87604 | -93.20407 | 825 ft | 29 kts | 121° |
| 2026-05-05 17:05 | 44.87504 | -93.20171 | 824 ft | 25 kts | 120° |
| 2026-05-05 17:05 | 44.87446 | -93.20078 | 826 ft | 0 kts | 167° |
| 2026-05-05 17:05 | 44.87445 | -93.20078 | 826 ft | 1 kts | 169° |
| 2026-05-05 17:06 | 44.87408 | -93.20091 | 827 ft | 9 kts | 202° |
| 2026-05-05 17:06 | 44.87385 | -93.20191 | 823 ft | 14 kts | 290° |
| 2026-05-05 17:06 | 44.87518 | -93.20506 | 821 ft | 70 kts | 301° |
| 2026-05-05 17:06 | 44.87880 | -93.21342 | 824 ft | 127 kts | 301° |
| 2026-05-05 17:07 | 44.88419 | -93.22568 | 962 ft | 158 kts | 303° |
| 2026-05-05 17:07 | 44.89007 | -93.23855 | 1611 ft | 158 kts | 303° |
| 2026-05-05 17:07 | 44.89651 | -93.25200 | 2033 ft | 173 kts | 303° |
| 2026-05-05 17:07 | 44.90383 | -93.26460 | 2854 ft | 162 kts | 320° |
| 2026-05-05 17:08 | 44.91391 | -93.27177 | 3488 ft | 166 kts | 341° |
| 2026-05-05 17:08 | 44.92592 | -93.27249 | 3833 ft | 191 kts | 13° |
| 2026-05-05 17:08 | 44.93699 | -93.26004 | 4047 ft | 222 kts | 54° |
| 2026-05-05 17:08 | 44.94147 | -93.23806 | 4252 ft | 249 kts | 90° |
| 2026-05-05 17:09 | 44.93692 | -93.21406 | 4727 ft | 260 kts | 113° |
| 2026-05-05 17:09 | 44.92916 | -93.19032 | 5038 ft | 280 kts | 115° |
| 2026-05-05 17:09 | 44.92059 | -93.16509 | 5713 ft | 286 kts | 115° |
| 2026-05-05 17:09 | 44.91206 | -93.13984 | 6659 ft | 285 kts | 115° |
| 2026-05-05 17:10 | 44.90358 | -93.11436 | 7377 ft | 291 kts | 114° |
| 2026-05-05 17:10 | 44.89500 | -93.08826 | 8095 ft | 296 kts | 114° |
| 2026-05-05 17:10 | 44.88630 | -93.06155 | 8794 ft | 302 kts | 114° |
| 2026-05-05 17:10 | 44.87749 | -93.03431 | 9526 ft | 308 kts | 114° |
| 2026-05-05 17:11 | 44.86855 | -93.00657 | 10185 ft | 314 kts | 114° |
| 2026-05-05 17:11 | 44.85928 | -92.97772 | 10450 ft | 335 kts | 114° |
| 2026-05-05 17:11 | 44.84937 | -92.94687 | 10633 ft | 356 kts | 114° |
| 2026-05-05 17:11 | 44.83900 | -92.91457 | 10829 ft | 375 kts | 114° |
| 2026-05-05 17:12 | 44.82808 | -92.88058 | 11295 ft | 385 kts | 115° |
| 2026-05-05 17:12 | 44.81694 | -92.84595 | 11907 ft | 390 kts | 115° |
| 2026-05-05 17:12 | 44.80570 | -92.81103 | 12571 ft | 393 kts | 115° |
| 2026-05-05 17:12 | 44.79435 | -92.77581 | 13203 ft | 398 kts | 115° |
| 2026-05-05 17:13 | 44.78283 | -92.74010 | 13799 ft | 403 kts | 115° |
| 2026-05-05 17:13 | 44.77117 | -92.70401 | 14351 ft | 407 kts | 115° |
| 2026-05-05 17:13 | 44.75937 | -92.66753 | 14951 ft | 410 kts | 116° |
| 2026-05-05 17:13 | 44.74746 | -92.63079 | 15496 ft | 415 kts | 116° |
| 2026-05-05 17:14 | 44.73542 | -92.59366 | 16044 ft | 419 kts | 116° |
| 2026-05-05 17:14 | 44.72324 | -92.55615 | 16599 ft | 423 kts | 116° |
| 2026-05-05 17:14 | 44.71096 | -92.51841 | 17155 ft | 427 kts | 116° |
| 2026-05-05 17:14 | 44.69754 | -92.48104 | 17687 ft | 429 kts | 124° |
| 2026-05-05 17:15 | 44.68062 | -92.44652 | 18228 ft | 430 kts | 129° |
| 2026-05-05 17:15 | 44.66267 | -92.41257 | 18655 ft | 435 kts | 130° |
| 2026-05-05 17:15 | 44.64442 | -92.37821 | 19010 ft | 442 kts | 130° |
| 2026-05-05 17:15 | 44.62608 | -92.34328 | 19391 ft | 448 kts | 130° |
| 2026-05-05 17:16 | 44.60784 | -92.30810 | 19786 ft | 453 kts | 130° |
| 2026-05-05 17:16 | 44.58926 | -92.27199 | 20108 ft | 460 kts | 132° |
| 2026-05-05 17:16 | 44.57030 | -92.23513 | 20318 ft | 470 kts | 132° |
| 2026-05-05 17:16 | 44.55109 | -92.19784 | 20753 ft | 474 kts | 132° |
| 2026-05-05 17:17 | 44.53172 | -92.16031 | 21235 ft | 476 kts | 133° |
| 2026-05-05 17:17 | 44.51218 | -92.12260 | 21639 ft | 481 kts | 133° |
| 2026-05-05 17:17 | 44.49241 | -92.08449 | 21997 ft | 487 kts | 133° |
| 2026-05-05 17:17 | 44.47241 | -92.04595 | 22395 ft | 491 kts | 133° |
| 2026-05-05 17:18 | 44.45224 | -92.00711 | 22792 ft | 495 kts | 134° |
| 2026-05-05 17:18 | 44.43189 | -91.96794 | 23168 ft | 500 kts | 134° |
| 2026-05-05 17:18 | 44.41174 | -91.92788 | 23515 ft | 505 kts | 133° |
| 2026-05-05 17:18 | 44.39104 | -91.88821 | 23875 ft | 504 kts | 135° |
| 2026-05-05 17:19 | 44.37022 | -91.84885 | 24370 ft | 504 kts | 134° |
| 2026-05-05 17:19 | 44.35130 | -91.80680 | 24761 ft | 514 kts | 127° |
| 2026-05-05 17:19 | 44.33439 | -91.76325 | 25097 ft | 520 kts | 124° |
| 2026-05-05 17:19 | 44.31791 | -91.71808 | 25431 ft | 524 kts | 124° |
| 2026-05-05 17:20 | 44.30150 | -91.67245 | 25775 ft | 526 kts | 124° |
| 2026-05-05 17:20 | 44.28493 | -91.62682 | 26155 ft | 528 kts | 124° |
| 2026-05-05 17:20 | 44.26802 | -91.58111 | 26485 ft | 530 kts | 125° |
| 2026-05-05 17:20 | 44.25084 | -91.53548 | 26826 ft | 532 kts | 125° |
| 2026-05-05 17:21 | 44.23342 | -91.48980 | 27134 ft | 534 kts | 126° |
| 2026-05-05 17:21 | 44.21582 | -91.44397 | 27428 ft | 536 kts | 126° |
| 2026-05-05 17:21 | 44.19818 | -91.39820 | 27824 ft | 536 kts | 126° |
| 2026-05-05 17:22 | 44.16272 | -91.30643 | 28444 ft | 541 kts | 126° |
| 2026-05-05 17:22 | 44.14484 | -91.26022 | 28710 ft | 543 kts | 126° |
| 2026-05-05 17:22 | 44.12690 | -91.21387 | 29080 ft | 544 kts | 126° |
| 2026-05-05 17:22 | 44.10900 | -91.16764 | 29586 ft | 541 kts | 126° |
| 2026-05-05 17:23 | 44.09118 | -91.12161 | 30044 ft | 540 kts | 126° |
| 2026-05-05 17:23 | 44.07352 | -91.07616 | 30276 ft | 542 kts | 126° |
| 2026-05-05 17:23 | 44.05550 | -91.02993 | 30478 ft | 545 kts | 126° |
| 2026-05-05 17:23 | 44.03742 | -90.98361 | 30769 ft | 545 kts | 125° |
| 2026-05-05 17:24 | 44.01934 | -90.93732 | 31036 ft | 545 kts | 125° |
| 2026-05-05 17:24 | 44.00123 | -90.89104 | 31328 ft | 545 kts | 125° |
| 2026-05-05 17:24 | 43.98309 | -90.84475 | 31588 ft | 546 kts | 125° |
| 2026-05-05 17:24 | 43.96490 | -90.79843 | 31858 ft | 547 kts | 125° |
| 2026-05-05 17:25 | 43.94668 | -90.75212 | 32101 ft | 547 kts | 126° |
| 2026-05-05 17:25 | 43.93456 | -90.72139 | 32363 ft | 545 kts | 126° |
| 2026-05-05 17:25 | 43.91028 | -90.65981 | 32819 ft | 544 kts | 125° |
| 2026-05-05 17:25 | 43.89219 | -90.61385 | 33119 ft | 543 kts | 125° |
| 2026-05-05 17:26 | 43.87390 | -90.56795 | 33379 ft | 543 kts | 126° |
| 2026-05-05 17:26 | 43.85563 | -90.52208 | 33622 ft | 544 kts | 126° |
| 2026-05-05 17:26 | 43.83716 | -90.47641 | 33859 ft | 544 kts | 125° |
| 2026-05-05 17:26 | 43.81902 | -90.43041 | 34130 ft | 541 kts | 126° |
| 2026-05-05 17:27 | 43.80107 | -90.38499 | 34575 ft | 534 kts | 126° |
| 2026-05-05 17:27 | 43.78327 | -90.34006 | 34881 ft | 532 kts | 126° |
| 2026-05-05 17:27 | 43.76560 | -90.29567 | 34838 ft | 535 kts | 126° |
| 2026-05-05 17:28 | 43.72962 | -90.20576 | 34855 ft | 532 kts | 126° |
| 2026-05-05 17:28 | 43.69377 | -90.11653 | 34863 ft | 530 kts | 126° |
| 2026-05-05 17:29 | 43.65795 | -90.02774 | 34866 ft | 528 kts | 126° |
| 2026-05-05 17:29 | 43.62221 | -89.93937 | 34819 ft | 526 kts | 126° |
| 2026-05-05 17:30 | 43.58654 | -89.85138 | 34877 ft | 525 kts | 126° |
| 2026-05-05 17:30 | 43.55086 | -89.76331 | 34895 ft | 527 kts | 124° |
| 2026-05-05 17:31 | 43.52063 | -89.67021 | 34897 ft | 534 kts | 118° |
| 2026-05-05 17:31 | 43.49317 | -89.57559 | 34889 ft | 536 kts | 117° |
| 2026-05-05 17:32 | 43.46523 | -89.48020 | 34878 ft | 538 kts | 118° |
| 2026-05-05 17:32 | 43.43658 | -89.38500 | 34876 ft | 538 kts | 118° |
| 2026-05-05 17:33 | 43.40757 | -89.29001 | 34866 ft | 538 kts | 118° |
| 2026-05-05 17:33 | 43.37846 | -89.19512 | 34860 ft | 539 kts | 118° |
| 2026-05-05 17:34 | 43.34927 | -89.10018 | 34867 ft | 538 kts | 118° |
| 2026-05-05 17:34 | 43.32012 | -89.00559 | 34871 ft | 538 kts | 118° |
| 2026-05-05 17:35 | 43.29090 | -88.91112 | 34858 ft | 537 kts | 118° |
| 2026-05-05 17:35 | 43.26166 | -88.81693 | 34867 ft | 536 kts | 119° |
| 2026-05-05 17:36 | 43.23239 | -88.72300 | 34852 ft | 535 kts | 119° |
| 2026-05-05 17:36 | 43.20312 | -88.62938 | 34844 ft | 533 kts | 119° |
| 2026-05-05 17:37 | 43.17406 | -88.53677 | 34848 ft | 532 kts | 119° |
| 2026-05-05 17:37 | 43.14475 | -88.44373 | 34864 ft | 531 kts | 119° |
| 2026-05-05 17:38 | 43.11544 | -88.35100 | 34856 ft | 530 kts | 119° |
| 2026-05-05 17:38 | 43.08610 | -88.25849 | 34870 ft | 530 kts | 119° |
| 2026-05-05 17:39 | 43.05670 | -88.16612 | 34853 ft | 529 kts | 120° |
| 2026-05-05 17:39 | 43.02725 | -88.07390 | 34879 ft | 529 kts | 120° |
| 2026-05-05 17:40 | 42.99772 | -87.98181 | 34798 ft | 529 kts | 119° |
| 2026-05-05 17:40 | 42.96815 | -87.88983 | 34843 ft | 528 kts | 119° |
| 2026-05-05 17:41 | 42.93847 | -87.79788 | 34854 ft | 529 kts | 119° |
| 2026-05-05 17:41 | 42.90885 | -87.70644 | 34866 ft | 530 kts | 119° |
| 2026-05-05 17:42 | 42.87893 | -87.61437 | 34871 ft | 532 kts | 119° |
| 2026-05-05 17:42 | 42.84887 | -87.52217 | 34873 ft | 533 kts | 119° |
| 2026-05-05 17:43 | 42.81868 | -87.42988 | 34873 ft | 533 kts | 120° |
| 2026-05-05 17:43 | 42.78840 | -87.33765 | 34879 ft | 533 kts | 120° |
| 2026-05-05 17:44 | 42.75822 | -87.24601 | 34878 ft | 533 kts | 120° |
| 2026-05-05 17:44 | 42.72780 | -87.15396 | 34886 ft | 533 kts | 120° |
| 2026-05-05 17:45 | 42.70247 | -87.07756 | 34899 ft | 533 kts | 120° |
| 2026-05-05 17:45 | 42.67194 | -86.98578 | 34895 ft | 532 kts | 120° |
| 2026-05-05 17:46 | 42.64136 | -86.89414 | 34879 ft | 532 kts | 120° |
| 2026-05-05 17:46 | 42.61077 | -86.80279 | 34888 ft | 531 kts | 120° |
| 2026-05-05 17:47 | 42.58013 | -86.71159 | 34885 ft | 530 kts | 120° |
| 2026-05-05 17:47 | 42.54947 | -86.62066 | 34870 ft | 530 kts | 120° |
| 2026-05-05 17:48 | 42.51893 | -86.53040 | 34867 ft | 529 kts | 120° |
| 2026-05-05 17:48 | 42.48817 | -86.43975 | 34877 ft | 530 kts | 121° |
| 2026-05-05 17:49 | 42.45724 | -86.34888 | 34883 ft | 530 kts | 121° |
| 2026-05-05 17:49 | 42.42628 | -86.25822 | 34891 ft | 531 kts | 121° |
| 2026-05-05 17:50 | 42.39521 | -86.16756 | 34867 ft | 531 kts | 121° |
| 2026-05-05 17:50 | 42.36407 | -86.07701 | 34862 ft | 531 kts | 121° |
| 2026-05-05 17:51 | 42.33286 | -85.98652 | 34833 ft | 531 kts | 121° |
| 2026-05-05 17:51 | 42.30161 | -85.89622 | 34859 ft | 530 kts | 121° |
| 2026-05-05 17:52 | 42.27055 | -85.80676 | 34862 ft | 529 kts | 121° |
| 2026-05-05 17:52 | 42.23921 | -85.71680 | 34861 ft | 529 kts | 121° |
| 2026-05-05 17:53 | 42.20782 | -85.62698 | 34858 ft | 529 kts | 121° |
| 2026-05-05 17:53 | 42.17636 | -85.53724 | 34863 ft | 529 kts | 121° |
| 2026-05-05 17:54 | 42.14481 | -85.44753 | 34862 ft | 529 kts | 121° |
| 2026-05-05 17:54 | 42.11326 | -85.35813 | 34856 ft | 528 kts | 122° |
| 2026-05-05 17:55 | 42.08174 | -85.26905 | 34854 ft | 526 kts | 122° |
| 2026-05-05 17:55 | 42.05039 | -85.18077 | 34859 ft | 526 kts | 122° |
| 2026-05-05 17:56 | 42.01882 | -85.09213 | 34864 ft | 525 kts | 122° |
| 2026-05-05 17:56 | 41.98719 | -85.00365 | 34867 ft | 524 kts | 122° |
| 2026-05-05 17:57 | 41.95560 | -84.91550 | 34858 ft | 523 kts | 122° |
| 2026-05-05 17:57 | 41.92395 | -84.82748 | 34866 ft | 523 kts | 122° |
| 2026-05-05 17:58 | 41.89230 | -84.73972 | 34863 ft | 522 kts | 122° |
| 2026-05-05 17:58 | 41.86077 | -84.65257 | 34814 ft | 522 kts | 123° |
| 2026-05-05 17:59 | 41.82909 | -84.56523 | 34849 ft | 520 kts | 123° |
| 2026-05-05 17:59 | 41.79753 | -84.47794 | 34856 ft | 521 kts | 120° |
| 2026-05-05 17:59 | 41.78531 | -84.43194 | 34848 ft | 528 kts | 109° |
| 2026-05-05 18:00 | 41.77784 | -84.38351 | 34852 ft | 532 kts | 100° |
| 2026-05-05 18:00 | 41.77571 | -84.28402 | 34864 ft | 535 kts | 91° |
| 2026-05-05 18:01 | 41.77627 | -84.18438 | 34880 ft | 534 kts | 92° |
| 2026-05-05 18:01 | 41.77611 | -84.08548 | 34877 ft | 534 kts | 92° |
| 2026-05-05 18:02 | 41.77535 | -83.98591 | 34876 ft | 534 kts | 93° |
| 2026-05-05 18:02 | 41.77444 | -83.88648 | 34860 ft | 534 kts | 93° |
| 2026-05-05 18:03 | 41.77350 | -83.78700 | 34851 ft | 534 kts | 93° |
| 2026-05-05 18:03 | 41.77250 | -83.68764 | 34854 ft | 534 kts | 93° |
| 2026-05-05 18:04 | 41.77143 | -83.58789 | 34849 ft | 535 kts | 93° |
| 2026-05-05 18:04 | 41.76678 | -83.48872 | 34857 ft | 532 kts | 100° |
| 2026-05-05 18:05 | 41.75663 | -83.39106 | 34832 ft | 532 kts | 101° |
| 2026-05-05 18:05 | 41.74619 | -83.29299 | 34831 ft | 532 kts | 101° |
| 2026-05-05 18:06 | 41.73638 | -83.19473 | 34829 ft | 532 kts | 101° |
| 2026-05-05 18:06 | 41.72678 | -83.09638 | 34837 ft | 532 kts | 100° |
| 2026-05-05 18:07 | 41.71708 | -82.99822 | 34822 ft | 532 kts | 100° |
| 2026-05-05 18:07 | 41.70723 | -82.90002 | 34823 ft | 532 kts | 100° |
| 2026-05-05 18:08 | 41.69731 | -82.80188 | 34819 ft | 532 kts | 100° |
| 2026-05-05 18:08 | 41.68731 | -82.70387 | 34824 ft | 531 kts | 100° |
| 2026-05-05 18:09 | 41.67729 | -82.60672 | 34826 ft | 530 kts | 100° |
| 2026-05-05 18:09 | 41.66706 | -82.50900 | 34824 ft | 530 kts | 100° |
| 2026-05-05 18:10 | 41.65670 | -82.41140 | 34823 ft | 530 kts | 100° |
| 2026-05-05 18:10 | 41.64627 | -82.31387 | 34812 ft | 530 kts | 100° |
| 2026-05-05 18:11 | 41.63576 | -82.21620 | 34819 ft | 530 kts | 100° |
| 2026-05-05 18:11 | 41.62523 | -82.11906 | 34822 ft | 531 kts | 100° |
| 2026-05-05 18:12 | 41.61456 | -82.02141 | 34824 ft | 532 kts | 100° |
| 2026-05-05 18:12 | 41.60377 | -81.92354 | 34830 ft | 532 kts | 100° |
| 2026-05-05 18:13 | 41.59288 | -81.82554 | 34832 ft | 533 kts | 100° |
| 2026-05-05 18:13 | 41.58191 | -81.72757 | 34835 ft | 533 kts | 100° |
| 2026-05-05 18:14 | 41.57085 | -81.62952 | 34818 ft | 534 kts | 100° |
| 2026-05-05 18:14 | 41.55977 | -81.53211 | 34856 ft | 534 kts | 100° |
| 2026-05-05 18:15 | 41.54855 | -81.43408 | 34851 ft | 534 kts | 100° |
| 2026-05-05 18:15 | 41.53819 | -81.33583 | 34849 ft | 535 kts | 98° |
| 2026-05-05 18:16 | 41.52954 | -81.23726 | 34828 ft | 534 kts | 98° |
| 2026-05-05 18:16 | 41.52090 | -81.13875 | 34814 ft | 534 kts | 98° |
| 2026-05-05 18:17 | 41.51185 | -81.04040 | 34813 ft | 533 kts | 98° |
| 2026-05-05 18:17 | 41.50259 | -80.94224 | 34802 ft | 533 kts | 98° |
| 2026-05-05 18:18 | 41.49325 | -80.84425 | 34810 ft | 532 kts | 98° |
| 2026-05-05 18:18 | 41.48392 | -80.74696 | 34803 ft | 531 kts | 98° |
| 2026-05-05 18:19 | 41.47448 | -80.64928 | 34807 ft | 531 kts | 98° |
| 2026-05-05 18:19 | 41.46497 | -80.55181 | 34801 ft | 530 kts | 98° |
| 2026-05-05 18:20 | 41.45538 | -80.45450 | 34811 ft | 528 kts | 98° |
| 2026-05-05 18:20 | 41.44576 | -80.35756 | 34808 ft | 527 kts | 98° |
| 2026-05-05 18:21 | 41.43605 | -80.26064 | 34828 ft | 527 kts | 98° |
| 2026-05-05 18:21 | 41.42628 | -80.16388 | 34824 ft | 527 kts | 98° |
| 2026-05-05 18:22 | 41.41654 | -80.06728 | 34837 ft | 526 kts | 98° |
| 2026-05-05 18:22 | 41.40725 | -79.97062 | 34849 ft | 526 kts | 98° |
| 2026-05-05 18:23 | 41.39804 | -79.87461 | 34850 ft | 525 kts | 98° |
| 2026-05-05 18:23 | 41.38865 | -79.77819 | 34849 ft | 525 kts | 98° |
| 2026-05-05 18:24 | 41.37914 | -79.68184 | 34814 ft | 524 kts | 98° |
| 2026-05-05 18:24 | 41.36954 | -79.58561 | 34819 ft | 523 kts | 98° |
| 2026-05-05 18:25 | 41.35989 | -79.48966 | 34821 ft | 523 kts | 98° |
| 2026-05-05 18:25 | 41.35016 | -79.39366 | 34813 ft | 522 kts | 98° |
| 2026-05-05 18:26 | 41.34045 | -79.29862 | 34813 ft | 521 kts | 98° |
| 2026-05-05 18:26 | 41.33062 | -79.20328 | 34814 ft | 519 kts | 98° |
| 2026-05-05 18:27 | 41.32074 | -79.10820 | 34831 ft | 518 kts | 98° |
| 2026-05-05 18:27 | 41.31079 | -79.01325 | 34834 ft | 517 kts | 98° |
| 2026-05-05 18:28 | 41.29576 | -78.87111 | 34841 ft | 517 kts | 98° |
| 2026-05-05 18:28 | 41.28549 | -78.77645 | 34834 ft | 517 kts | 98° |
| 2026-05-05 18:29 | 41.27500 | -78.68188 | 34804 ft | 517 kts | 98° |
| 2026-05-05 18:29 | 41.26454 | -78.58799 | 34805 ft | 516 kts | 98° |
| 2026-05-05 18:30 | 41.25400 | -78.49356 | 34813 ft | 517 kts | 98° |
| 2026-05-05 18:30 | 41.24345 | -78.39906 | 34823 ft | 517 kts | 98° |
| 2026-05-05 18:31 | 41.23302 | -78.30448 | 34827 ft | 517 kts | 98° |
| 2026-05-05 18:31 | 41.22251 | -78.20994 | 34833 ft | 517 kts | 98° |
| 2026-05-05 18:32 | 41.21190 | -78.11608 | 34822 ft | 517 kts | 98° |
| 2026-05-05 18:32 | 41.20035 | -78.02202 | 34827 ft | 516 kts | 99° |
| 2026-05-05 18:33 | 41.18843 | -77.92803 | 34823 ft | 516 kts | 99° |
| 2026-05-05 18:33 | 41.17656 | -77.83414 | 34813 ft | 516 kts | 99° |
| 2026-05-05 18:34 | 41.16470 | -77.74019 | 34804 ft | 515 kts | 99° |
| 2026-05-05 18:34 | 41.15281 | -77.64640 | 34809 ft | 515 kts | 99° |
| 2026-05-05 18:35 | 41.14083 | -77.55266 | 34814 ft | 515 kts | 99° |
| 2026-05-05 18:35 | 41.12885 | -77.45964 | 34808 ft | 515 kts | 99° |
| 2026-05-05 18:36 | 41.11672 | -77.36603 | 34813 ft | 515 kts | 99° |
| 2026-05-05 18:36 | 41.10449 | -77.27235 | 34808 ft | 516 kts | 99° |
| 2026-05-05 18:37 | 41.09420 | -77.19378 | 34810 ft | 515 kts | 99° |
| 2026-05-05 18:37 | 41.08191 | -77.10076 | 34803 ft | 515 kts | 99° |